Time;durP1;ratioP1;P1;durP2;ratioP2;P2;SDS_P1;SDS_P2;PMS_P1;PMS_P2;Temp;Humidity;BMP_temperature;BMP_pressure;BME280_temperature;BME280_humidity;BME280_pressure;Samples;Min_cycle;Max_cycle;Signal;HPM_P1;HPM_P2
2021/01/30 00:00:35;;;;;;;4.37;1.20;;;7.10;99.90;;;7.66;100.00;96727.56;4995713;28;20506;-80
2021/01/30 00:03:06;;;;;;;2.53;1.10;;;7.10;99.90;;;7.61;100.00;96729.97;5001993;28;20503;-80
2021/01/30 00:05:36;;;;;;;4.70;1.30;;;7.00;99.90;;;7.64;100.00;96733.97;4999481;28;20498;-80
2021/01/30 00:08:13;;;;;;;2.77;1.40;;;7.10;99.90;;;7.62;100.00;96728.16;5002050;28;20457;-80
2021/01/30 00:10:40;;;;;;;3.40;1.57;;;7.10;99.90;;;7.59;100.00;96727.56;4999263;28;20467;-80
2021/01/30 00:13:09;;;;;;;3.93;1.50;;;7.00;99.90;;;7.60;100.00;96723.97;4999715;28;20461;-80
2021/01/30 00:15:38;;;;;;;6.50;1.57;;;7.10;99.90;;;7.62;100.00;96730.75;5000362;28;20812;-80
2021/01/30 00:18:07;;;;;;;2.43;1.43;;;7.10;99.90;;;7.63;100.00;96732.38;5000325;28;20450;-80
2021/01/30 00:20:38;;;;;;;7.80;1.37;;;7.10;99.90;;;7.65;100.00;96730.38;4999985;28;20471;-80
2021/01/30 00:23:08;;;;;;;7.33;1.80;;;7.10;99.90;;;7.66;100.00;96729.38;4999113;28;20473;-80
2021/01/30 00:25:38;;;;;;;6.90;1.30;;;7.20;99.90;;;7.60;100.00;96726.56;4999636;28;20498;-80
2021/01/30 00:28:08;;;;;;;3.70;1.23;;;7.00;99.90;;;7.63;100.00;96717.56;5001080;28;20458;-80
2021/01/30 00:30:36;;;;;;;2.47;1.47;;;7.10;99.90;;;7.62;100.00;96725.56;5000360;28;20544;-80
2021/01/30 00:33:07;;;;;;;6.50;1.93;;;7.10;99.90;;;7.63;100.00;96722.78;4999728;28;20470;-80
2021/01/30 00:35:36;;;;;;;6.67;1.60;;;7.10;99.90;;;7.60;100.00;96723.97;4998843;28;20494;-80
2021/01/30 00:38:05;;;;;;;8.70;1.70;;;7.10;99.90;;;7.59;100.00;96722.38;4999276;28;20579;-80
2021/01/30 00:40:34;;;;;;;6.73;2.53;;;7.10;99.90;;;7.62;100.00;96728.16;4999715;28;20846;-80
2021/01/30 00:43:03;;;;;;;8.03;1.70;;;7.10;99.90;;;7.57;100.00;96719.16;4999420;28;20996;-80
2021/01/30 00:45:31;;;;;;;4.90;1.70;;;7.00;99.90;;;7.60;100.00;96723.19;4998571;28;20582;-80
2021/01/30 00:48:00;;;;;;;2.03;1.40;;;7.10;99.90;;;7.61;100.00;96722.16;4998695;28;20887;-80
2021/01/30 00:50:29;;;;;;;5.00;2.30;;;7.10;99.90;;;7.64;100.00;96728.75;4999406;28;20452;-80
2021/01/30 00:52:58;;;;;;;13.40;2.10;;;7.10;99.90;;;7.67;100.00;96717.97;4999235;28;20464;-80
2021/01/30 00:55:25;;;;;;;2.63;1.23;;;7.20;99.90;;;7.66;100.00;96711.16;4998737;28;20454;-80
2021/01/30 00:57:53;;;;;;;7.83;1.60;;;7.10;99.90;;;7.65;100.00;96719.97;4999949;28;20461;-80
2021/01/30 01:00:24;;;;;;;3.53;1.30;;;7.10;99.90;;;7.67;100.00;96728.38;4998859;28;20922;-80
2021/01/30 01:02:53;;;;;;;5.00;1.83;;;7.10;99.90;;;7.66;100.00;96731.97;4997817;28;20496;-80
2021/01/30 01:05:23;;;;;;;4.00;1.30;;;7.00;99.90;;;7.66;100.00;96734.56;5000093;28;20499;-80
2021/01/30 01:07:52;;;;;;;6.43;1.53;;;7.10;99.90;;;7.65;100.00;96735.56;4997967;28;20463;-80
2021/01/30 01:10:23;;;;;;;3.00;1.40;;;7.10;99.90;;;7.66;100.00;96727.56;4999790;28;20455;-80
2021/01/30 01:12:52;;;;;;;5.83;1.17;;;7.10;99.90;;;7.67;100.00;96728.38;4999271;28;20843;-80
2021/01/30 01:15:21;;;;;;;5.53;1.20;;;7.10;99.90;;;7.66;100.00;96722.38;4997074;28;20522;-80
2021/01/30 01:17:49;;;;;;;7.90;1.70;;;7.00;99.90;;;7.62;100.00;96728.97;4996989;28;20963;-80
2021/01/30 01:20:20;;;;;;;5.73;1.30;;;7.00;99.90;;;7.66;100.00;96732.78;4999884;28;20469;-80
2021/01/30 01:22:48;;;;;;;4.53;1.20;;;7.10;99.90;;;7.67;100.00;96723.94;5000389;28;21020;-80
2021/01/30 01:25:20;;;;;;;2.57;1.23;;;7.20;99.90;;;7.69;100.00;96731.56;4996956;28;20528;-80
2021/01/30 01:27:48;;;;;;;4.80;1.73;;;7.20;99.90;;;7.66;100.00;96721.56;4998563;28;20463;-80
2021/01/30 01:30:18;;;;;;;4.13;1.30;;;7.10;99.90;;;7.69;100.00;96736.78;4998356;28;20498;-80
2021/01/30 01:32:46;;;;;;;4.47;1.60;;;7.20;99.90;;;7.66;100.00;96735.38;4996964;28;20884;-80
2021/01/30 01:35:16;;;;;;;2.63;1.37;;;7.10;99.90;;;7.67;100.00;96728.38;4998181;28;20459;-80
2021/01/30 01:37:44;;;;;;;1.47;1.17;;;7.10;99.90;;;7.66;100.00;96724.16;4996769;28;21074;-80
2021/01/30 01:40:14;;;;;;;4.57;1.60;;;7.20;99.90;;;7.67;100.00;96723.19;4998388;28;20887;-80
2021/01/30 01:42:42;;;;;;;4.60;1.80;;;7.20;99.90;;;7.68;100.00;96732.56;4998403;28;20462;-80
2021/01/30 01:45:12;;;;;;;3.83;1.13;;;7.20;99.90;;;7.68;100.00;96724.75;4999240;28;20471;-80
2021/01/30 01:47:45;;;;;;;6.70;1.30;;;7.20;99.90;;;7.66;100.00;96731.97;4998198;28;20459;-80
2021/01/30 01:50:33;;;;;;;6.50;1.27;;;7.20;99.90;;;7.62;100.00;96723.78;4999436;28;20945;-80
2021/01/30 01:53:13;;;;;;;1.67;1.20;;;7.20;99.90;;;7.57;100.00;96724.34;4998280;28;21038;-80
2021/01/30 01:55:46;;;;;;;1.40;1.03;;;7.20;99.90;;;7.59;100.00;96727.56;4998604;28;20471;-80
2021/01/30 01:58:20;;;;;;;2.33;1.03;;;7.10;99.90;;;7.60;100.00;96721.34;4996912;28;20522;-80
2021/01/30 02:00:50;;;;;;;1.87;1.00;;;7.10;99.90;;;7.60;100.00;96723.19;4998468;28;20460;-80
2021/01/30 02:03:23;;;;;;;4.00;1.20;;;7.10;99.90;;;7.55;100.00;96715.16;4998969;28;20471;-80
2021/01/30 02:05:50;;;;;;;4.30;1.40;;;7.00;99.90;;;7.56;100.00;96712.38;4997674;28;20532;-80
2021/01/30 02:08:23;;;;;;;3.73;1.60;;;7.10;99.90;;;7.56;100.00;96701.97;4997733;28;20489;-80
2021/01/30 02:10:52;;;;;;;4.30;1.07;;;7.10;99.90;;;7.56;100.00;96707.19;4997973;28;20455;-80
2021/01/30 02:13:26;;;;;;;9.30;1.30;;;7.00;99.90;;;7.57;100.00;96708.75;4999301;28;20517;-80
2021/01/30 02:16:02;;;;;;;5.10;1.30;;;7.10;99.90;;;7.53;100.00;96707.56;4997169;28;20826;-80
2021/01/30 02:18:49;;;;;;;17.53;1.70;;;7.10;99.90;;;7.53;100.00;96714.56;4998531;28;21182;-80
2021/01/30 02:22:06;;;;;;;3.30;1.30;;;6.90;99.90;;;7.55;100.00;96692.56;4997133;28;21022;-80
2021/01/30 02:25:18;;;;;;;4.40;1.40;;;6.90;99.90;;;7.52;100.00;96690.38;4997005;28;20977;-80
2021/01/30 02:28:18;;;;;;;3.73;1.30;;;6.90;99.90;;;7.52;100.00;96690.38;4997050;28;20478;-81
2021/01/30 02:31:18;;;;;;;3.10;1.37;;;6.90;99.90;;;7.51;100.00;96691.34;4996367;28;20553;-80
2021/01/30 02:34:26;;;;;;;4.00;1.10;;;6.90;99.90;;;7.52;100.00;96682.56;4997615;28;20471;-79
2021/01/30 02:37:02;;;;;;;4.63;1.43;;;6.90;99.90;;;7.41;100.00;96683.16;4997508;28;20481;-80
2021/01/30 02:39:37;;;;;;;5.97;1.50;;;6.80;99.90;;;7.44;100.00;96672.34;4998090;28;20477;-80
2021/01/30 02:42:13;;;;;;;2.57;1.10;;;6.90;99.90;;;7.44;100.00;96677.56;4995667;28;20470;-80
2021/01/30 02:44:48;;;;;;;4.60;1.23;;;6.90;99.90;;;7.46;100.00;96679.97;4997895;28;20486;-80
2021/01/30 02:47:21;;;;;;;4.10;1.03;;;6.90;99.90;;;7.46;100.00;96675.53;4995661;28;20502;-79
2021/01/30 02:50:02;;;;;;;9.73;1.50;;;6.90;99.90;;;7.47;100.00;96681.53;4993414;28;20452;-80
2021/01/30 02:52:34;;;;;;;1.67;1.40;;;6.90;99.90;;;7.45;100.00;96679.16;4996862;28;20474;-80
2021/01/30 02:55:03;;;;;;;1.10;1.00;;;6.80;99.90;;;7.47;100.00;96678.94;4996994;28;21026;-80
2021/01/30 02:57:30;;;;;;;2.43;1.10;;;6.80;99.90;;;7.49;100.00;96671.75;4997764;28;20890;-80
2021/01/30 03:00:04;;;;;;;1.07;0.93;;;7.00;99.90;;;7.45;100.00;96678.38;4998564;28;20455;-80
2021/01/30 03:02:32;;;;;;;1.30;0.90;;;6.90;99.90;;;7.43;100.00;96675.94;4996535;28;20463;-80
2021/01/30 03:05:01;;;;;;;1.87;1.20;;;6.90;99.90;;;7.42;100.00;96679.56;4997268;28;21028;-80
2021/01/30 03:07:55;;;;;;;2.60;1.00;;;7.00;99.90;;;7.46;100.00;96675.53;4995338;28;20513;-80
2021/01/30 03:10:31;;;;;;;1.97;1.00;;;7.00;99.90;;;7.45;100.00;96668.75;4996578;28;20471;-80
2021/01/30 03:13:11;;;;;;;1.37;0.80;;;7.00;99.90;;;7.43;100.00;96675.94;4998200;28;20530;-80
2021/01/30 03:15:50;;;;;;;1.30;0.97;;;6.90;99.90;;;7.41;100.00;96680.56;4997165;28;20459;-80
2021/01/30 03:18:24;;;;;;;1.87;0.93;;;6.80;99.90;;;7.43;100.00;96678.53;4995897;28;20990;-80
2021/01/30 03:20:53;;;;;;;1.47;0.90;;;6.90;99.90;;;7.45;100.00;96673.97;4995449;28;20471;-80
2021/01/30 03:23:22;;;;;;;1.33;0.87;;;6.90;99.90;;;7.43;100.00;96672.53;4997386;28;20447;-80
2021/01/30 03:25:54;;;;;;;1.60;1.00;;;6.80;99.90;;;7.42;100.00;96669.16;4996278;28;20498;-80
2021/01/30 03:28:22;;;;;;;2.10;0.97;;;6.80;99.90;;;7.42;100.00;96666.56;4996488;28;21067;-80
2021/01/30 03:30:50;;;;;;;2.70;1.10;;;6.70;99.90;;;7.42;100.00;96666.56;4995666;28;20487;-80
2021/01/30 03:33:17;;;;;;;2.90;1.20;;;6.70;99.90;;;7.38;100.00;96669.75;4996107;28;20513;-80
2021/01/30 03:35:45;;;;;;;1.27;0.90;;;6.70;99.90;;;7.43;100.00;96665.53;4994276;28;20996;-80
2021/01/30 03:38:13;;;;;;;2.97;1.20;;;6.80;99.90;;;7.42;100.00;96661.38;4997460;28;20938;-80
2021/01/30 03:40:43;;;;;;;1.30;0.87;;;6.90;99.90;;;7.40;100.00;96660.75;4999955;28;20611;-80
2021/01/30 03:43:11;;;;;;;4.50;1.10;;;6.80;99.90;;;7.42;100.00;96661.38;4997989;28;20606;-80
2021/01/30 03:45:39;;;;;;;1.10;1.00;;;6.80;99.90;;;7.43;100.00;96660.34;4999771;28;20470;-80
2021/01/30 03:48:08;;;;;;;1.77;1.10;;;6.90;99.90;;;7.44;100.00;96661.16;5001549;28;20448;-79
2021/01/30 03:50:35;;;;;;;3.70;1.10;;;6.80;99.90;;;7.44;100.00;96655.94;4999432;28;20843;-80
2021/01/30 03:53:06;;;;;;;2.40;1.10;;;6.80;99.90;;;7.44;100.00;96654.16;5000072;28;20475;-80
2021/01/30 03:55:34;;;;;;;4.87;1.17;;;6.80;99.90;;;7.47;100.00;96658.16;4998919;28;20475;-80
2021/01/30 03:58:03;;;;;;;2.70;1.17;;;6.80;99.90;;;7.48;100.00;96646.75;4999477;28;20463;-80
2021/01/30 04:00:31;;;;;;;3.43;1.33;;;6.90;99.90;;;7.46;100.00;96644.34;5000638;28;20864;-80
2021/01/30 04:03:00;;;;;;;1.20;1.03;;;6.80;99.90;;;7.46;100.00;96644.34;4999978;28;20571;-80
2021/01/30 04:05:29;;;;;;;4.00;1.23;;;6.90;99.90;;;7.45;100.00;96642.75;4999607;28;21090;-80
2021/01/30 04:07:59;;;;;;;7.03;1.20;;;6.80;99.90;;;7.44;100.00;96640.34;4999206;28;20494;-80
2021/01/30 04:10:31;;;;;;;2.00;1.30;;;6.70;99.90;;;7.44;100.00;96635.16;5000669;28;20466;-80
2021/01/30 04:13:03;;;;;;;3.67;1.07;;;6.80;99.90;;;7.45;100.00;96637.56;4999293;28;20517;-80
2021/01/30 04:15:34;;;;;;;7.43;1.20;;;6.80;99.90;;;7.46;100.00;96633.94;4999216;28;20462;-80
2021/01/30 04:18:03;;;;;;;4.33;1.50;;;6.80;99.90;;;7.47;100.00;96626.94;5000389;28;20455;-80
2021/01/30 04:20:31;;;;;;;6.03;1.37;;;6.90;99.90;;;7.44;100.00;96630.75;5000008;28;20545;-80
2021/01/30 04:23:01;;;;;;;5.70;1.10;;;6.90;99.90;;;7.44;100.00;96633.34;4998966;28;20475;-80
2021/01/30 04:25:29;;;;;;;13.90;1.53;;;6.90;99.90;;;7.42;100.00;96627.56;4998633;28;20814;-80
2021/01/30 04:27:59;;;;;;;2.57;1.30;;;6.90;99.90;;;7.44;100.00;96624.75;4999380;28;20876;-79
2021/01/30 04:30:30;;;;;;;3.43;1.40;;;6.90;99.90;;;7.45;100.00;96626.34;4997090;28;20499;-80
2021/01/30 04:33:00;;;;;;;18.33;1.93;;;6.90;99.90;;;7.44;100.00;96629.94;5001118;28;20513;-80
2021/01/30 04:35:33;;;;;;;16.17;2.27;;;6.80;99.90;;;7.45;100.00;96632.34;4999227;28;20471;-79
2021/01/30 04:38:01;;;;;;;11.80;2.07;;;6.90;99.90;;;7.45;100.00;96627.16;5000012;28;20478;-80
2021/01/30 04:40:34;;;;;;;13.63;2.20;;;6.90;99.90;;;7.45;100.00;96621.97;4996486;28;20757;-80
2021/01/30 04:43:20;;;;;;;17.93;2.40;;;6.90;99.90;;;7.39;100.00;96627.94;4997455;28;20478;-80
2021/01/30 04:46:12;;;;;;;19.77;5.70;;;6.80;99.90;;;7.32;100.00;96621.97;4998309;28;20471;-84
2021/01/30 04:48:56;;;;;;;13.63;2.80;;;6.70;99.90;;;7.29;100.00;96624.94;4996683;28;20945;-80
2021/01/30 04:51:35;;;;;;;13.40;1.93;;;6.70;99.90;;;7.32;100.00;96621.97;4998871;28;20550;-80
2021/01/30 04:54:28;;;;;;;14.03;2.77;;;6.70;99.90;;;7.38;100.00;96625.56;5000403;28;20486;-80
2021/01/30 04:57:21;;;;;;;7.37;2.10;;;6.80;99.90;;;7.42;100.00;96617.16;5000287;28;20848;-80
2021/01/30 05:00:25;;;;;;;14.90;2.83;;;6.90;99.90;;;7.39;100.00;96619.38;5001627;28;20435;-80
2021/01/30 05:03:14;;;;;;;8.87;1.80;;;6.90;99.90;;;7.36;100.00;96614.53;4999319;28;20447;-80
2021/01/30 05:05:47;;;;;;;14.73;2.73;;;6.80;99.90;;;7.38;100.00;96609.97;4999957;28;20466;-80
2021/01/30 05:08:24;;;;;;;20.10;4.57;;;6.90;99.90;;;7.38;100.00;96613.34;5000007;28;20474;-79
2021/01/30 05:10:58;;;;;;;11.47;2.53;;;6.70;99.90;;;7.38;100.00;96609.97;5000176;28;20466;-79
2021/01/30 05:13:33;;;;;;;9.90;2.50;;;6.80;99.90;;;7.37;100.00;96603.94;4999351;28;20828;-80
2021/01/30 05:16:08;;;;;;;23.07;5.17;;;6.80;99.90;;;7.40;100.00;96608.75;4997998;28;20479;-79
2021/01/30 05:18:47;;;;;;;14.53;3.40;;;6.80;99.90;;;7.42;100.00;96596.34;4999376;28;20474;-79
2021/01/30 05:21:21;;;;;;;14.03;3.37;;;6.80;99.90;;;7.42;100.00;96600.75;4999784;28;20860;-79
2021/01/30 05:23:53;;;;;;;20.63;2.63;;;6.80;99.90;;;7.42;100.00;96604.16;5001131;28;20454;-79
2021/01/30 05:26:33;;;;;;;10.33;2.60;;;6.90;99.90;;;7.41;100.00;96597.34;5000174;28;20490;-80
2021/01/30 05:29:11;;;;;;;14.67;2.73;;;7.00;99.90;;;7.40;100.00;96593.16;4998290;28;20820;-80
2021/01/30 05:31:50;;;;;;;13.90;2.90;;;6.90;99.90;;;7.37;100.00;96597.94;4995766;28;20454;-81
2021/01/30 05:34:26;;;;;;;9.00;2.93;;;6.90;99.90;;;7.36;100.00;96599.75;5000045;28;20452;-81
2021/01/30 05:37:01;;;;;;;13.77;2.60;;;6.80;99.90;;;7.38;100.00;96597.75;4996751;28;20442;-81
2021/01/30 05:39:53;;;;;;;19.07;3.23;;;6.90;99.90;;;7.36;100.00;96598.94;4999539;28;20852;-81
2021/01/30 05:42:34;;;;;;;10.53;2.63;;;6.80;99.90;;;7.33;100.00;96597.56;5000581;28;20522;-81
2021/01/30 05:45:13;;;;;;;15.53;3.40;;;6.80;99.90;;;7.31;100.00;96596.97;5001700;28;20451;-81
2021/01/30 05:47:41;;;;;;;12.37;3.27;;;6.70;99.90;;;7.33;100.00;96601.94;5001395;28;20515;-81
2021/01/30 05:50:22;;;;;;;10.40;2.27;;;6.90;99.90;;;7.35;100.00;96592.97;5001311;28;20888;-82
2021/01/30 05:52:49;;;;;;;11.63;2.50;;;6.90;99.90;;;7.29;100.00;96585.97;5002250;28;20515;-81
2021/01/30 05:55:28;;;;;;;14.27;3.10;;;6.80;99.90;;;7.24;100.00;96577.19;5000707;28;20455;-81
2021/01/30 05:58:03;;;;;;;12.17;2.77;;;6.70;99.90;;;7.28;100.00;96579.19;5001341;28;20526;-81
2021/01/30 06:00:31;;;;;;;15.80;4.77;;;6.80;99.90;;;7.26;100.00;96575.97;5001061;28;20462;-81
2021/01/30 06:03:10;;;;;;;13.60;2.80;;;6.70;99.90;;;7.32;100.00;96571.78;5001271;28;20459;-81
2021/01/30 06:05:43;;;;;;;17.53;2.80;;;6.80;99.90;;;7.18;100.00;96578.78;5000607;28;21863;-81
2021/01/30 06:08:23;;;;;;;23.30;3.30;;;6.60;99.90;;;7.23;100.00;96576.38;5001365;28;20493;-81
2021/01/30 06:11:04;;;;;;;9.87;2.93;;;6.80;99.90;;;7.17;100.00;96566.78;5001367;28;20602;-81
2021/01/30 06:13:34;;;;;;;16.40;2.40;;;6.60;99.90;;;7.15;100.00;96568.78;5000914;28;20450;-81
2021/01/30 06:16:03;;;;;;;14.47;2.27;;;6.60;99.90;;;7.22;100.00;96563.59;5001527;28;20447;-81
2021/01/30 06:18:37;;;;;;;16.13;2.60;;;6.80;99.90;;;7.19;100.00;96556.97;5001377;28;20463;-82
2021/01/30 06:21:12;;;;;;;14.43;1.93;;;6.70;99.90;;;7.18;100.00;96563.19;5000210;28;20447;-81
2021/01/30 06:24:00;;;;;;;9.93;2.60;;;6.60;99.90;;;7.16;100.00;96554.78;5000462;28;20474;-82
2021/01/30 06:26:28;;;;;;;12.73;2.57;;;6.70;99.90;;;7.17;100.00;96558.19;5000526;28;20495;-81
2021/01/30 06:29:03;;;;;;;15.60;3.17;;;6.70;99.90;;;7.20;100.00;96555.97;5000721;28;20448;-81
2021/01/30 06:31:39;;;;;;;24.73;2.90;;;6.70;99.90;;;7.21;100.00;96549.00;5000673;28;20459;-81
2021/01/30 06:34:31;;;;;;;10.30;2.77;;;6.70;99.90;;;7.13;100.00;96560.41;5000497;28;20545;-81
2021/01/30 06:37:05;;;;;;;20.13;3.40;;;6.50;99.90;;;7.18;100.00;96557.19;5000496;28;20465;-81
2021/01/30 06:39:36;;;;;;;8.30;2.80;;;6.70;99.90;;;7.20;100.00;96550.78;5000470;28;20930;-81
2021/01/30 06:42:09;;;;;;;7.47;2.40;;;6.60;99.90;;;7.22;100.00;96551.38;5000707;28;20451;-81
2021/01/30 06:44:39;;;;;;;7.73;2.43;;;6.70;99.90;;;7.15;100.00;96542.00;4999598;28;20474;-81
2021/01/30 06:47:16;;;;;;;12.63;2.73;;;6.70;99.90;;;7.12;100.00;96538.00;5000203;28;20507;-81
2021/01/30 06:49:47;;;;;;;14.43;2.47;;;6.70;99.90;;;7.15;100.00;96536.81;5000188;28;20850;-81
2021/01/30 06:52:25;;;;;;;15.93;1.90;;;6.70;99.90;;;7.13;100.00;96542.19;5001389;28;20530;-81
2021/01/30 06:55:12;;;;;;;17.80;3.50;;;6.60;99.90;;;7.15;100.00;96537.59;5001111;28;20455;-81
2021/01/30 06:57:50;;;;;;;14.10;2.50;;;6.50;99.90;;;7.10;100.00;96545.22;5000889;28;20527;-81
2021/01/30 07:00:28;;;;;;;9.17;2.40;;;6.50;99.90;;;7.09;100.00;96549.59;5000747;28;20454;-81
2021/01/30 07:03:11;;;;;;;18.00;2.60;;;6.60;99.90;;;7.09;100.00;96541.00;5000574;28;20467;-81
2021/01/30 07:05:55;;;;;;;12.10;2.23;;;6.50;99.90;;;7.09;100.00;96536.59;5000635;28;20478;-81
2021/01/30 07:08:56;;;;;;;15.70;2.53;;;6.50;99.90;;;7.06;100.00;96544.81;5000982;28;20491;-81
2021/01/30 07:11:59;;;;;;;8.47;2.40;;;6.50;99.90;;;7.05;100.00;96537.19;5000503;28;20783;-81
2021/01/30 07:15:06;;;;;;;7.77;2.10;;;6.40;99.90;;;7.07;100.00;96535.22;4998568;28;20471;-81
2021/01/30 07:18:03;;;;;;;12.53;2.33;;;6.50;99.90;;;7.10;100.00;96534.81;4999310;28;20464;-81
2021/01/30 07:21:01;;;;;;;9.30;1.83;;;6.50;99.90;;;7.09;100.00;96534.00;5000902;28;20455;-81
2021/01/30 07:23:41;;;;;;;7.47;1.70;;;6.50;99.90;;;7.07;100.00;96525.63;4997848;28;20471;-81
2021/01/30 07:26:18;;;;;;;11.27;3.70;;;6.50;99.90;;;7.10;100.00;96534.81;5000263;28;20463;-81
2021/01/30 07:28:55;;;;;;;13.73;3.00;;;6.60;99.90;;;7.08;100.00;96531.59;5000109;28;20456;-81
2021/01/30 07:31:32;;;;;;;15.33;2.80;;;6.60;99.90;;;7.08;100.00;96532.41;5000392;28;20963;-81
2021/01/30 07:34:16;;;;;;;8.63;2.57;;;6.60;99.90;;;7.11;100.00;96520.81;5000125;28;20459;-81
2021/01/30 07:36:54;;;;;;;15.17;3.30;;;6.60;99.90;;;7.06;100.00;96526.63;4999815;28;20482;-81
2021/01/30 07:39:35;;;;;;;18.10;2.60;;;6.50;99.90;;;7.10;100.00;96524.41;4999305;28;20467;-81
2021/01/30 07:42:11;;;;;;;10.57;1.90;;;6.60;99.90;;;7.09;100.00;96528.00;5001989;28;20483;-81
2021/01/30 07:44:56;;;;;;;11.57;2.40;;;6.60;99.90;;;7.12;100.00;96527.59;5000833;28;20626;-81
2021/01/30 07:47:36;;;;;;;12.30;3.73;;;6.70;99.90;;;7.11;100.00;96520.81;5000146;28;20495;-81
2021/01/30 07:50:12;;;;;;;12.33;2.63;;;6.60;99.90;;;7.11;100.00;96515.63;4997527;28;20446;-81
2021/01/30 07:52:59;;;;;;;20.77;2.43;;;6.60;99.90;;;7.09;100.00;96518.41;4999482;28;20510;-81
2021/01/30 07:55:28;;;;;;;15.40;3.60;;;6.50;99.90;;;7.12;100.00;96517.19;4999932;28;20450;-81
2021/01/30 07:58:35;;;;;;;12.17;2.73;;;6.50;99.90;;;7.15;100.00;96510.81;4999844;28;20451;-81
2021/01/30 08:01:41;;;;;;;13.80;3.00;;;6.50;99.90;;;7.20;100.00;96513.59;4999692;28;20571;-81
2021/01/30 08:04:39;;;;;;;20.07;2.90;;;6.50;99.90;;;7.16;100.00;96513.19;4999758;28;20444;-81
2021/01/30 08:07:25;;;;;;;15.63;2.60;;;6.50;99.90;;;7.14;100.00;96515.22;5000341;28;20995;-81
2021/01/30 08:10:07;;;;;;;9.80;2.73;;;6.50;99.90;;;7.17;100.00;96507.00;4999307;28;20451;-80
2021/01/30 08:13:05;;;;;;;9.50;2.50;;;6.50;99.90;;;7.19;100.00;96505.00;4999678;28;20829;-81
2021/01/30 08:15:43;;;;;;;17.77;2.50;;;6.50;99.90;;;7.15;100.00;96503.03;5000910;28;20501;-81
2021/01/30 08:18:35;;;;;;;15.53;2.70;;;6.40;99.90;;;7.19;100.00;96492.00;4999851;28;20928;-81
2021/01/30 08:21:17;;;;;;;16.20;3.40;;;6.50;99.90;;;7.20;100.00;96487.59;5000194;28;20460;-81
2021/01/30 08:24:01;;;;;;;25.43;3.70;;;6.50;99.90;;;7.18;100.00;96495.63;5000752;28;20494;-81
2021/01/30 08:26:34;;;;;;;14.73;2.60;;;6.40;99.90;;;7.15;100.00;96484.81;5001905;28;20474;-80
2021/01/30 08:29:20;;;;;;;13.53;3.27;;;6.40;99.90;;;7.20;100.00;96479.81;5003579;28;20451;-81
2021/01/30 08:31:54;;;;;;;21.47;3.90;;;6.50;99.90;;;7.22;100.00;96483.78;5003274;28;20443;-81
2021/01/30 08:34:35;;;;;;;13.57;3.03;;;6.50;99.90;;;7.23;100.00;96484.59;5002872;28;20459;-81
2021/01/30 08:37:37;;;;;;;17.13;3.67;;;6.60;99.90;;;7.24;100.00;96484.41;5003139;28;20471;-81
2021/01/30 08:40:14;;;;;;;22.73;3.30;;;6.60;99.90;;;7.28;100.00;96482.19;5003733;28;20474;-81
2021/01/30 08:43:01;;;;;;;25.90;3.93;;;6.60;99.90;;;7.33;100.00;96482.34;5002503;28;20470;-81
2021/01/30 08:45:33;;;;;;;10.30;2.70;;;6.70;99.90;;;7.33;100.00;96477.97;5002721;28;20534;-81
2021/01/30 08:48:25;;;;;;;15.33;3.57;;;6.70;99.90;;;7.39;100.00;96477.13;5002632;28;20513;-81
2021/01/30 08:50:57;;;;;;;12.67;3.97;;;6.70;99.90;;;7.43;100.00;96474.91;5002615;28;20451;-81
2021/01/30 08:53:35;;;;;;;11.90;4.10;;;6.80;99.90;;;7.42;100.00;96463.75;5003128;28;20462;-81
2021/01/30 08:56:07;;;;;;;17.67;3.63;;;6.80;99.90;;;7.46;100.00;96464.91;5002227;28;20944;-81
2021/01/30 08:58:52;;;;;;;14.23;3.90;;;6.80;99.90;;;7.49;100.00;96459.31;5002486;28;20578;-81
2021/01/30 09:01:48;;;;;;;17.50;3.87;;;6.90;99.90;;;7.51;100.00;96453.88;5001611;28;20455;-81
2021/01/30 09:05:01;;;;;;;14.20;4.03;;;6.80;99.90;;;7.49;100.00;96467.13;5003341;28;20459;-81
2021/01/30 09:07:51;;;;;;;13.47;3.03;;;6.90;99.90;;;7.53;100.00;96457.09;5000634;28;20593;-81
2021/01/30 09:10:35;;;;;;;16.03;2.87;;;6.90;99.90;;;7.62;100.00;96463.66;5000761;28;20450;-81
2021/01/30 09:13:11;;;;;;;16.37;3.77;;;7.10;99.90;;;7.63;100.00;96457.44;5002362;28;20473;-81
2021/01/30 09:16:00;;;;;;;21.20;3.57;;;7.10;99.90;;;7.66;100.00;96458.81;5002216;28;20497;-80
2021/01/30 09:18:49;;;;;;;16.60;3.30;;;7.10;99.90;;;7.68;100.00;96449.81;5000992;28;20448;-81
2021/01/30 09:21:55;;;;;;;8.77;2.97;;;7.10;99.90;;;7.73;100.00;96451.78;5001609;28;20448;-81
2021/01/30 09:24:57;;;;;;;14.73;4.53;;;7.10;99.90;;;7.75;100.00;96441.97;5002252;28;20928;-81
2021/01/30 09:27:29;;;;;;;15.80;2.90;;;7.20;99.90;;;7.77;100.00;96442.56;4985121;28;20748;-81
2021/01/30 09:30:13;;;;;;;15.77;2.90;;;7.20;99.90;;;7.77;100.00;96443.38;5001762;28;20479;-81
2021/01/30 09:32:46;;;;;;;12.73;3.00;;;7.20;99.90;;;7.81;100.00;96443.75;5002090;28;20496;-81
2021/01/30 09:35:26;;;;;;;12.00;3.07;;;7.30;99.90;;;7.82;100.00;96450.53;5000925;28;20457;-81
2021/01/30 09:37:54;;;;;;;8.93;2.50;;;7.20;99.90;;;7.86;100.00;96443.91;5001792;28;20475;-81
2021/01/30 09:40:27;;;;;;;10.17;2.20;;;7.20;99.90;;;7.87;100.00;96445.50;5002242;28;20456;-81
2021/01/30 09:43:03;;;;;;;16.90;2.87;;;7.20;99.90;;;7.84;100.00;96440.72;5001855;28;20512;-81
2021/01/30 09:45:33;;;;;;;9.33;2.30;;;7.10;99.90;;;7.84;100.00;96443.31;5002111;28;20494;-81
2021/01/30 09:48:11;;;;;;;8.80;2.80;;;7.10;99.90;;;7.86;100.00;96447.31;5001446;28;20586;-81
2021/01/30 09:50:50;;;;;;;16.30;2.97;;;7.20;99.90;;;7.87;100.00;96442.91;5001471;28;20557;-81
2021/01/30 09:53:30;;;;;;;17.07;2.80;;;7.20;99.90;;;7.91;100.00;96455.28;5002318;28;20465;-81
2021/01/30 09:56:11;;;;;;;11.27;2.70;;;7.20;99.90;;;7.95;100.00;96455.66;5001237;28;20459;-82
2021/01/30 09:58:44;;;;;;;5.97;2.30;;;7.30;99.90;;;7.97;100.00;96458.84;5001599;28;20820;-81
2021/01/30 10:01:24;;;;;;;12.47;4.63;;;7.40;99.90;;;8.00;100.00;96458.44;5001175;28;20455;-81
2021/01/30 10:03:54;;;;;;;14.53;3.23;;;7.30;99.90;;;8.03;100.00;96458.81;5000077;28;20452;-81
2021/01/30 10:06:31;;;;;;;13.13;4.57;;;7.40;99.90;;;8.08;100.00;96469.41;5001858;28;20444;-81
2021/01/30 10:09:16;;;;;;;13.23;4.87;;;7.40;99.90;;;8.11;100.00;96468.19;5000463;28;20497;-80
2021/01/30 10:11:51;;;;;;;7.53;2.40;;;7.50;99.90;;;8.09;100.00;96467.56;5000754;28;20452;-81
2021/01/30 10:14:20;;;;;;;12.23;2.80;;;7.40;99.90;;;8.10;100.00;96474.38;5001183;28;20466;-81
2021/01/30 10:17:01;;;;;;;15.23;2.93;;;7.40;99.90;;;8.16;100.00;96454.53;5001238;28;20921;-81
2021/01/30 10:19:34;;;;;;;8.53;2.30;;;7.50;99.90;;;8.18;100.00;96466.34;5000923;28;20542;-83
2021/01/30 10:22:23;;;;;;;7.40;2.37;;;7.50;99.90;;;8.07;100.00;96461.78;4999667;28;20468;-80
2021/01/30 10:25:01;;;;;;;5.47;2.07;;;7.40;99.90;;;7.96;100.00;96471.06;5002238;28;20560;-81
2021/01/30 10:27:31;;;;;;;4.67;1.60;;;7.30;99.90;;;7.95;100.00;96455.66;4999688;28;20494;-81
2021/01/30 10:29:59;;;;;;;7.70;1.97;;;7.20;99.90;;;7.97;100.00;96456.25;5000571;28;20524;-81
2021/01/30 10:32:40;;;;;;;12.87;2.73;;;7.30;99.90;;;7.95;100.00;96460.84;5000217;28;20455;-81
2021/01/30 10:35:16;;;;;;;10.57;2.40;;;7.30;99.90;;;7.90;100.00;96458.91;5000804;28;20534;-82
2021/01/30 10:37:51;;;;;;;7.97;1.93;;;7.20;99.90;;;7.99;100.00;96455.03;5000298;28;20462;-81
2021/01/30 10:40:32;;;;;;;3.80;1.87;;;7.40;99.90;;;7.97;100.00;96453.66;4998340;28;20946;-81
2021/01/30 10:43:04;;;;;;;7.10;1.80;;;7.40;99.90;;;7.99;100.00;96454.22;5001803;28;20484;-81
2021/01/30 10:45:36;;;;;;;9.67;3.10;;;7.40;99.90;;;8.02;100.00;96444.19;5000826;28;20478;-81
2021/01/30 10:48:12;;;;;;;3.30;1.83;;;7.40;99.90;;;8.02;100.00;96440.78;5000367;28;20499;-81
2021/01/30 10:50:45;;;;;;;12.20;2.00;;;7.50;99.90;;;7.96;100.00;96433.84;5000101;28;20463;-81
2021/01/30 10:53:35;;;;;;;7.27;1.97;;;7.40;99.90;;;7.99;100.00;96426.41;4997240;28;20459;-81
2021/01/30 10:56:34;;;;;;;5.90;1.90;;;7.40;99.90;;;8.01;100.00;96421.00;4992085;28;20482;-81
2021/01/30 10:59:24;;;;;;;6.10;1.60;;;7.40;99.90;;;7.96;100.00;96423.41;5001537;28;20541;-81
2021/01/30 11:01:52;;;;;;;5.47;1.93;;;7.30;99.90;;;8.03;100.00;96418.97;4998368;28;20547;-81
2021/01/30 11:04:27;;;;;;;7.73;1.90;;;7.40;99.90;;;7.95;100.00;96414.81;5001371;28;20459;-81